sensor_id;sensor_type;location;lat;lon;timestamp;pressure;altitude;pressure_sealevel;temperature;humidity
64228;BME280;50546;49.146;10.616;2022-08-21T00:02:16;96379.09;;;17.91;80.11
64228;BME280;50546;49.146;10.616;2022-08-21T00:04:42;96386.59;;;17.98;80.05
64228;BME280;50546;49.146;10.616;2022-08-21T00:07:08;96386.88;;;17.93;79.61
64228;BME280;50546;49.146;10.616;2022-08-21T00:09:33;96380.84;;;18.03;78.59
64228;BME280;50546;49.146;10.616;2022-08-21T00:11:58;96379.50;;;17.93;79.08
64228;BME280;50546;49.146;10.616;2022-08-21T00:14:24;96374.41;;;17.92;78.88
64228;BME280;50546;49.146;10.616;2022-08-21T00:16:49;96376.84;;;17.97;78.12
64228;BME280;50546;49.146;10.616;2022-08-21T00:19:15;96372.84;;;17.91;78.27
64228;BME280;50546;49.146;10.616;2022-08-21T00:21:40;96375.19;;;17.92;78.40
64228;BME280;50546;49.146;10.616;2022-08-21T00:24:05;96369.75;;;17.73;78.62
64228;BME280;50546;49.146;10.616;2022-08-21T00:26:31;96367.91;;;17.77;79.20
64228;BME280;50546;49.146;10.616;2022-08-21T00:28:56;96377.72;;;17.82;78.65
64228;BME280;50546;49.146;10.616;2022-08-21T00:31:22;96372.59;;;17.76;78.40
64228;BME280;50546;49.146;10.616;2022-08-21T00:33:47;96369.47;;;17.78;78.60
64228;BME280;50546;49.146;10.616;2022-08-21T00:36:13;96368.59;;;17.74;79.13
64228;BME280;50546;49.146;10.616;2022-08-21T00:38:39;96366.34;;;17.76;78.20
64228;BME280;50546;49.146;10.616;2022-08-21T00:41:07;96369.84;;;17.76;78.87
64228;BME280;50546;49.146;10.616;2022-08-21T00:43:35;96364.03;;;17.78;78.18
64228;BME280;50546;49.146;10.616;2022-08-21T00:46:03;96368.31;;;17.60;78.80
64228;BME280;50546;49.146;10.616;2022-08-21T00:48:29;96372.06;;;17.51;79.11
64228;BME280;50546;49.146;10.616;2022-08-21T00:51:08;96376.09;;;17.58;78.49
64228;BME280;50546;49.146;10.616;2022-08-21T00:53:37;96366.69;;;17.55;78.28
64228;BME280;50546;49.146;10.616;2022-08-21T00:56:05;96371.28;;;17.51;78.79
64228;BME280;50546;49.146;10.616;2022-08-21T00:58:32;96378.22;;;17.48;79.38
64228;BME280;50546;49.146;10.616;2022-08-21T01:00:59;96373.00;;;17.59;78.23
64228;BME280;50546;49.146;10.616;2022-08-21T01:03:25;96371.84;;;17.41;78.92
64228;BME280;50546;49.146;10.616;2022-08-21T01:05:51;96368.75;;;17.42;79.26
64228;BME280;50546;49.146;10.616;2022-08-21T01:08:18;96365.31;;;17.45;79.19
64228;BME280;50546;49.146;10.616;2022-08-21T01:10:45;96373.94;;;17.47;79.16
64228;BME280;50546;49.146;10.616;2022-08-21T01:13:14;96367.19;;;17.41;78.58
64228;BME280;50546;49.146;10.616;2022-08-21T01:15:43;96369.06;;;17.37;78.64
64228;BME280;50546;49.146;10.616;2022-08-21T01:18:11;96372.19;;;17.39;79.22
64228;BME280;50546;49.146;10.616;2022-08-21T01:20:38;96363.75;;;17.44;78.57
64228;BME280;50546;49.146;10.616;2022-08-21T01:23:06;96354.94;;;17.51;78.31
64228;BME280;50546;49.146;10.616;2022-08-21T01:25:33;96358.84;;;17.53;78.12
64228;BME280;50546;49.146;10.616;2022-08-21T01:28:02;96364.31;;;17.53;77.67
64228;BME280;50546;49.146;10.616;2022-08-21T01:30:31;96358.94;;;17.38;78.18
64228;BME280;50546;49.146;10.616;2022-08-21T01:32:59;96363.16;;;17.35;78.63
64228;BME280;50546;49.146;10.616;2022-08-21T01:35:25;96354.72;;;17.40;78.27
64228;BME280;50546;49.146;10.616;2022-08-21T01:37:50;96356.22;;;17.38;78.38
64228;BME280;50546;49.146;10.616;2022-08-21T01:40:16;96355.84;;;17.39;78.17
64228;BME280;50546;49.146;10.616;2022-08-21T01:42:42;96355.94;;;17.23;78.67
64228;BME280;50546;49.146;10.616;2022-08-21T01:45:08;96355.72;;;17.13;78.81
64228;BME280;50546;49.146;10.616;2022-08-21T01:47:34;96355.06;;;17.19;78.08
64228;BME280;50546;49.146;10.616;2022-08-21T01:50:00;96352.41;;;17.23;78.40
64228;BME280;50546;49.146;10.616;2022-08-21T01:52:26;96345.56;;;17.29;77.40
64228;BME280;50546;49.146;10.616;2022-08-21T01:54:51;96353.34;;;17.30;77.11
64228;BME280;50546;49.146;10.616;2022-08-21T01:57:17;96349.69;;;17.23;77.33
64228;BME280;50546;49.146;10.616;2022-08-21T01:59:42;96347.75;;;17.23;77.73
64228;BME280;50546;49.146;10.616;2022-08-21T02:02:07;96356.72;;;17.24;77.79
64228;BME280;50546;49.146;10.616;2022-08-21T02:04:33;96358.44;;;17.13;77.44
64228;BME280;50546;49.146;10.616;2022-08-21T02:07:00;96348.69;;;17.12;77.62
64228;BME280;50546;49.146;10.616;2022-08-21T02:09:25;96347.13;;;17.11;77.88
64228;BME280;50546;49.146;10.616;2022-08-21T02:11:51;96342.03;;;17.09;77.31
64228;BME280;50546;49.146;10.616;2022-08-21T02:14:16;96344.66;;;17.05;77.23
64228;BME280;50546;49.146;10.616;2022-08-21T02:16:44;96344.59;;;17.02;76.90
64228;BME280;50546;49.146;10.616;2022-08-21T02:19:11;96341.88;;;17.02;77.52
64228;BME280;50546;49.146;10.616;2022-08-21T02:21:37;96344.47;;;17.14;77.09
64228;BME280;50546;49.146;10.616;2022-08-21T02:24:03;96336.44;;;17.02;76.53
64228;BME280;50546;49.146;10.616;2022-08-21T02:26:28;96336.09;;;17.03;76.85
64228;BME280;50546;49.146;10.616;2022-08-21T02:28:54;96346.59;;;17.05;77.44
64228;BME280;50546;49.146;10.616;2022-08-21T02:31:19;96341.09;;;17.01;76.28
64228;BME280;50546;49.146;10.616;2022-08-21T02:33:45;96346.44;;;16.98;76.65
64228;BME280;50546;49.146;10.616;2022-08-21T02:36:11;96340.16;;;16.94;77.23
64228;BME280;50546;49.146;10.616;2022-08-21T02:38:38;96344.88;;;16.97;76.99
64228;BME280;50546;49.146;10.616;2022-08-21T02:41:12;96344.31;;;17.07;76.54
64228;BME280;50546;49.146;10.616;2022-08-21T02:43:38;96346.97;;;17.03;76.21
64228;BME280;50546;49.146;10.616;2022-08-21T02:46:05;96343.25;;;16.92;76.27
64228;BME280;50546;49.146;10.616;2022-08-21T02:48:32;96345.81;;;17.04;76.22
64228;BME280;50546;49.146;10.616;2022-08-21T02:53:29;96349.69;;;17.03;75.54
64228;BME280;50546;49.146;10.616;2022-08-21T02:55:57;96351.47;;;16.96;76.09
64228;BME280;50546;49.146;10.616;2022-08-21T02:58:26;96346.81;;;16.96;76.18
64228;BME280;50546;49.146;10.616;2022-08-21T03:00:52;96341.78;;;16.98;75.59
64228;BME280;50546;49.146;10.616;2022-08-21T03:03:18;96340.22;;;16.97;75.60
64228;BME280;50546;49.146;10.616;2022-08-21T03:05:46;96345.22;;;16.95;76.47
64228;BME280;50546;49.146;10.616;2022-08-21T03:08:13;96338.13;;;16.91;75.98
64228;BME280;50546;49.146;10.616;2022-08-21T03:10:43;96339.84;;;16.79;76.53
64228;BME280;50546;49.146;10.616;2022-08-21T03:13:10;96341.00;;;16.78;75.97
64228;BME280;50546;49.146;10.616;2022-08-21T03:15:36;96346.44;;;16.78;76.44
64228;BME280;50546;49.146;10.616;2022-08-21T03:18:02;96346.06;;;16.80;76.22
64228;BME280;50546;49.146;10.616;2022-08-21T03:20:30;96341.84;;;16.82;76.06
64228;BME280;50546;49.146;10.616;2022-08-21T03:22:57;96346.66;;;16.89;76.02
64228;BME280;50546;49.146;10.616;2022-08-21T03:25:24;96354.38;;;16.87;76.14
64228;BME280;50546;49.146;10.616;2022-08-21T03:27:50;96344.34;;;16.91;76.25
64228;BME280;50546;49.146;10.616;2022-08-21T03:30:17;96346.66;;;16.89;75.72
64228;BME280;50546;49.146;10.616;2022-08-21T03:32:43;96357.72;;;16.96;75.46
64228;BME280;50546;49.146;10.616;2022-08-21T03:35:09;96357.13;;;17.06;75.29
64228;BME280;50546;49.146;10.616;2022-08-21T03:37:35;96353.69;;;16.90;75.12
64228;BME280;50546;49.146;10.616;2022-08-21T03:40:01;96347.25;;;16.98;74.70
64228;BME280;50546;49.146;10.616;2022-08-21T03:42:26;96348.31;;;16.94;74.57
64228;BME280;50546;49.146;10.616;2022-08-21T03:44:52;96351.41;;;16.92;75.11
64228;BME280;50546;49.146;10.616;2022-08-21T03:47:17;96352.69;;;16.98;75.19
64228;BME280;50546;49.146;10.616;2022-08-21T03:49:42;96352.91;;;16.90;75.09
64228;BME280;50546;49.146;10.616;2022-08-21T03:52:08;96358.88;;;16.79;76.07
64228;BME280;50546;49.146;10.616;2022-08-21T03:54:33;96360.19;;;16.70;76.01
64228;BME280;50546;49.146;10.616;2022-08-21T03:56:59;96371.78;;;16.67;75.57
64228;BME280;50546;49.146;10.616;2022-08-21T03:59:25;96367.94;;;16.52;75.89
64228;BME280;50546;49.146;10.616;2022-08-21T04:01:58;96371.72;;;16.47;76.20
64228;BME280;50546;49.146;10.616;2022-08-21T04:04:25;96367.94;;;16.36;76.89
64228;BME280;50546;49.146;10.616;2022-08-21T04:06:51;96361.97;;;16.15;77.83
64228;BME280;50546;49.146;10.616;2022-08-21T04:09:17;96370.41;;;16.09;77.42
64228;BME280;50546;49.146;10.616;2022-08-21T04:11:43;96367.00;;;16.12;77.89
64228;BME280;50546;49.146;10.616;2022-08-21T04:14:10;96366.81;;;16.05;78.27
64228;BME280;50546;49.146;10.616;2022-08-21T04:16:35;96370.13;;;16.15;77.90
64228;BME280;50546;49.146;10.616;2022-08-21T04:19:01;96369.53;;;16.21;77.68
64228;BME280;50546;49.146;10.616;2022-08-21T04:21:26;96366.91;;;16.25;77.77
64228;BME280;50546;49.146;10.616;2022-08-21T04:23:54;96376.91;;;16.21;77.34
64228;BME280;50546;49.146;10.616;2022-08-21T04:26:19;96385.06;;;16.21;77.43
64228;BME280;50546;49.146;10.616;2022-08-21T04:28:45;96387.94;;;16.28;76.73
64228;BME280;50546;49.146;10.616;2022-08-21T04:31:10;96386.09;;;16.32;76.51
64228;BME280;50546;49.146;10.616;2022-08-21T04:33:35;96384.09;;;16.29;76.00
64228;BME280;50546;49.146;10.616;2022-08-21T04:36:01;96390.22;;;16.26;76.19
64228;BME280;50546;49.146;10.616;2022-08-21T04:38:26;96393.91;;;16.33;76.01
64228;BME280;50546;49.146;10.616;2022-08-21T04:40:52;96391.34;;;16.41;75.80
64228;BME280;50546;49.146;10.616;2022-08-21T04:43:18;96393.91;;;16.33;75.31
64228;BME280;50546;49.146;10.616;2022-08-21T04:45:46;96402.59;;;16.39;75.02
64228;BME280;50546;49.146;10.616;2022-08-21T04:48:14;96406.88;;;16.40;74.56
64228;BME280;50546;49.146;10.616;2022-08-21T04:50:44;96400.94;;;16.34;74.42
64228;BME280;50546;49.146;10.616;2022-08-21T04:53:18;96401.19;;;16.29;74.09
64228;BME280;50546;49.146;10.616;2022-08-21T04:55:44;96405.31;;;16.39;73.92
64228;BME280;50546;49.146;10.616;2022-08-21T04:58:12;96410.06;;;16.42;73.48
64228;BME280;50546;49.146;10.616;2022-08-21T05:00:38;96409.53;;;16.36;74.07
64228;BME280;50546;49.146;10.616;2022-08-21T05:03:05;96410.31;;;16.37;73.43
64228;BME280;50546;49.146;10.616;2022-08-21T05:05:32;96413.03;;;16.37;74.10
64228;BME280;50546;49.146;10.616;2022-08-21T05:07:59;96414.16;;;16.36;74.27
64228;BME280;50546;49.146;10.616;2022-08-21T05:10:27;96414.06;;;16.48;73.58
64228;BME280;50546;49.146;10.616;2022-08-21T05:12:53;96412.06;;;16.61;73.10
64228;BME280;50546;49.146;10.616;2022-08-21T05:15:18;96413.91;;;16.57;72.99
64228;BME280;50546;49.146;10.616;2022-08-21T05:17:44;96415.94;;;16.60;73.50
64228;BME280;50546;49.146;10.616;2022-08-21T05:20:10;96420.75;;;16.67;72.84
64228;BME280;50546;49.146;10.616;2022-08-21T05:22:37;96414.16;;;16.68;72.94
64228;BME280;50546;49.146;10.616;2022-08-21T05:25:03;96417.69;;;16.68;73.18
64228;BME280;50546;49.146;10.616;2022-08-21T05:27:28;96423.81;;;16.81;72.25
64228;BME280;50546;49.146;10.616;2022-08-21T05:29:55;96418.13;;;16.86;71.67
64228;BME280;50546;49.146;10.616;2022-08-21T05:32:20;96416.81;;;16.96;71.86
64228;BME280;50546;49.146;10.616;2022-08-21T05:34:46;96420.97;;;17.09;71.17
64228;BME280;50546;49.146;10.616;2022-08-21T05:37:12;96421.41;;;17.11;71.91
64228;BME280;50546;49.146;10.616;2022-08-21T05:39:37;96428.97;;;17.18;72.21
64228;BME280;50546;49.146;10.616;2022-08-21T05:42:02;96417.56;;;17.31;71.07
64228;BME280;50546;49.146;10.616;2022-08-21T05:44:28;96419.31;;;17.40;70.81
64228;BME280;50546;49.146;10.616;2022-08-21T05:46:53;96419.47;;;17.47;70.78
64228;BME280;50546;49.146;10.616;2022-08-21T05:49:19;96421.09;;;17.51;70.47
64228;BME280;50546;49.146;10.616;2022-08-21T05:51:44;96425.06;;;17.54;69.94
64228;BME280;50546;49.146;10.616;2022-08-21T05:54:09;96423.81;;;17.51;70.45
64228;BME280;50546;49.146;10.616;2022-08-21T05:56:36;96421.44;;;17.50;70.56
64228;BME280;50546;49.146;10.616;2022-08-21T05:59:01;96418.72;;;17.50;70.46
64228;BME280;50546;49.146;10.616;2022-08-21T06:01:27;96425.41;;;17.52;69.66
64228;BME280;50546;49.146;10.616;2022-08-21T06:03:52;96415.88;;;17.62;70.23
64228;BME280;50546;49.146;10.616;2022-08-21T06:06:18;96420.53;;;17.62;70.16
64228;BME280;50546;49.146;10.616;2022-08-21T06:08:43;96416.94;;;17.58;69.68
64228;BME280;50546;49.146;10.616;2022-08-21T06:11:09;96412.78;;;17.64;69.42
64228;BME280;50546;49.146;10.616;2022-08-21T06:13:35;96413.94;;;17.63;69.74
64228;BME280;50546;49.146;10.616;2022-08-21T06:16:06;96418.38;;;17.71;69.89
64228;BME280;50546;49.146;10.616;2022-08-21T06:18:34;96417.81;;;17.81;69.89
64228;BME280;50546;49.146;10.616;2022-08-21T06:20:59;96418.53;;;17.78;69.47
64228;BME280;50546;49.146;10.616;2022-08-21T06:23:25;96418.53;;;17.97;69.15
64228;BME280;50546;49.146;10.616;2022-08-21T06:25:50;96410.91;;;18.07;69.50
64228;BME280;50546;49.146;10.616;2022-08-21T06:28:16;96417.34;;;18.18;69.64
64228;BME280;50546;49.146;10.616;2022-08-21T06:30:41;96414.78;;;18.28;69.05
64228;BME280;50546;49.146;10.616;2022-08-21T06:33:07;96426.63;;;18.36;69.61
64228;BME280;50546;49.146;10.616;2022-08-21T06:35:32;96433.22;;;18.35;69.48
64228;BME280;50546;49.146;10.616;2022-08-21T06:37:58;96422.13;;;18.47;68.64
64228;BME280;50546;49.146;10.616;2022-08-21T06:40:25;96429.06;;;18.41;68.57
64228;BME280;50546;49.146;10.616;2022-08-21T06:42:50;96429.34;;;18.36;69.57
64228;BME280;50546;49.146;10.616;2022-08-21T06:45:15;96426.06;;;18.50;69.13
64228;BME280;50546;49.146;10.616;2022-08-21T06:47:41;96438.34;;;18.60;68.51
64228;BME280;50546;49.146;10.616;2022-08-21T06:50:06;96442.16;;;18.78;68.40
64228;BME280;50546;49.146;10.616;2022-08-21T06:52:34;96432.81;;;18.79;68.68
64228;BME280;50546;49.146;10.616;2022-08-21T06:54:59;96436.75;;;18.82;68.33
64228;BME280;50546;49.146;10.616;2022-08-21T06:57:24;96440.75;;;18.88;67.36
64228;BME280;50546;49.146;10.616;2022-08-21T06:59:50;96439.78;;;18.99;68.02
64228;BME280;50546;49.146;10.616;2022-08-21T07:02:16;96433.94;;;19.01;68.89
64228;BME280;50546;49.146;10.616;2022-08-21T07:04:41;96437.31;;;19.17;67.19
64228;BME280;50546;49.146;10.616;2022-08-21T07:07:06;96437.53;;;19.35;67.56
64228;BME280;50546;49.146;10.616;2022-08-21T07:09:31;96425.03;;;19.34;67.01
64228;BME280;50546;49.146;10.616;2022-08-21T07:11:58;96426.78;;;19.49;67.96
64228;BME280;50546;49.146;10.616;2022-08-21T07:14:23;96431.47;;;19.49;67.56
64228;BME280;50546;49.146;10.616;2022-08-21T07:16:49;96437.28;;;19.44;67.44
64228;BME280;50546;49.146;10.616;2022-08-21T07:19:15;96439.94;;;19.67;67.34
64228;BME280;50546;49.146;10.616;2022-08-21T07:21:40;96435.75;;;19.77;67.35
64228;BME280;50546;49.146;10.616;2022-08-21T07:24:06;96434.44;;;20.01;65.50
64228;BME280;50546;49.146;10.616;2022-08-21T07:26:31;96428.47;;;20.25;65.24
64228;BME280;50546;49.146;10.616;2022-08-21T07:28:57;96420.06;;;20.44;63.71
64228;BME280;50546;49.146;10.616;2022-08-21T07:31:24;96427.91;;;20.09;64.89
64228;BME280;50546;49.146;10.616;2022-08-21T07:33:49;96420.97;;;20.18;64.43
64228;BME280;50546;49.146;10.616;2022-08-21T07:36:15;96421.38;;;20.20;65.75
64228;BME280;50546;49.146;10.616;2022-08-21T07:38:40;96423.94;;;20.43;65.25
64228;BME280;50546;49.146;10.616;2022-08-21T07:41:23;96413.16;;;20.58;65.11
64228;BME280;50546;49.146;10.616;2022-08-21T07:43:49;96413.31;;;20.79;63.91
64228;BME280;50546;49.146;10.616;2022-08-21T07:46:15;96415.91;;;21.13;63.69
64228;BME280;50546;49.146;10.616;2022-08-21T07:48:40;96412.88;;;21.29;62.40
64228;BME280;50546;49.146;10.616;2022-08-21T07:51:08;96406.69;;;21.35;62.84
64228;BME280;50546;49.146;10.616;2022-08-21T07:53:36;96409.38;;;21.32;63.92
64228;BME280;50546;49.146;10.616;2022-08-21T07:56:02;96407.56;;;21.54;63.10
64228;BME280;50546;49.146;10.616;2022-08-21T07:58:28;96415.34;;;21.48;63.38
64228;BME280;50546;49.146;10.616;2022-08-21T08:00:53;96396.66;;;21.68;62.64
64228;BME280;50546;49.146;10.616;2022-08-21T08:03:19;96409.56;;;21.71;62.07
64228;BME280;50546;49.146;10.616;2022-08-21T08:05:44;96402.94;;;21.79;62.59
64228;BME280;50546;49.146;10.616;2022-08-21T08:08:09;96399.78;;;21.74;61.88
64228;BME280;50546;49.146;10.616;2022-08-21T08:10:35;96401.44;;;22.00;61.05
64228;BME280;50546;49.146;10.616;2022-08-21T08:13:02;96403.09;;;22.22;61.72
64228;BME280;50546;49.146;10.616;2022-08-21T08:15:28;96405.38;;;22.13;61.48
64228;BME280;50546;49.146;10.616;2022-08-21T08:17:54;96402.28;;;22.22;62.54
64228;BME280;50546;49.146;10.616;2022-08-21T08:20:20;96404.97;;;22.04;61.62
64228;BME280;50546;49.146;10.616;2022-08-21T08:22:47;96399.09;;;22.09;61.71
64228;BME280;50546;49.146;10.616;2022-08-21T08:25:14;96406.63;;;22.26;61.37
64228;BME280;50546;49.146;10.616;2022-08-21T08:27:40;96404.25;;;22.18;61.97
64228;BME280;50546;49.146;10.616;2022-08-21T08:30:07;96387.41;;;22.66;61.63
64228;BME280;50546;49.146;10.616;2022-08-21T08:32:33;96397.25;;;22.81;60.17
64228;BME280;50546;49.146;10.616;2022-08-21T08:34:59;96389.38;;;22.94;61.28
64228;BME280;50546;49.146;10.616;2022-08-21T08:37:25;96391.34;;;22.50;60.83
64228;BME280;50546;49.146;10.616;2022-08-21T08:39:50;96387.41;;;22.26;61.89
64228;BME280;50546;49.146;10.616;2022-08-21T08:42:26;96388.88;;;21.99;63.09
64228;BME280;50546;49.146;10.616;2022-08-21T08:45:00;96387.78;;;22.21;62.51
64228;BME280;50546;49.146;10.616;2022-08-21T08:47:27;96382.72;;;22.41;62.22
64228;BME280;50546;49.146;10.616;2022-08-21T08:50:03;96386.63;;;22.33;61.83
64228;BME280;50546;49.146;10.616;2022-08-21T08:52:40;96385.81;;;22.25;63.16
64228;BME280;50546;49.146;10.616;2022-08-21T08:57:35;96388.22;;;22.38;62.04
64228;BME280;50546;49.146;10.616;2022-08-21T09:00:05;96388.97;;;22.31;62.19
64228;BME280;50546;49.146;10.616;2022-08-21T09:02:31;96394.50;;;22.56;62.31
64228;BME280;50546;49.146;10.616;2022-08-21T09:04:59;96382.72;;;22.88;61.47
64228;BME280;50546;49.146;10.616;2022-08-21T09:12:54;96396.06;;;22.68;60.70
64228;BME280;50546;49.146;10.616;2022-08-21T09:15:34;96387.38;;;23.19;58.95
64228;BME280;50546;49.146;10.616;2022-08-21T09:18:28;96383.84;;;23.19;58.44
64228;BME280;50546;49.146;10.616;2022-08-21T09:21:02;96383.50;;;22.77;59.30
64228;BME280;50546;49.146;10.616;2022-08-21T09:23:43;96379.94;;;23.02;59.63
64228;BME280;50546;49.146;10.616;2022-08-21T09:26:25;96375.25;;;23.02;56.46
64228;BME280;50546;49.146;10.616;2022-08-21T09:28:54;96379.56;;;22.86;57.05
64228;BME280;50546;49.146;10.616;2022-08-21T09:31:33;96369.31;;;23.18;57.10
64228;BME280;50546;49.146;10.616;2022-08-21T09:34:05;96378.69;;;23.46;56.89
64228;BME280;50546;49.146;10.616;2022-08-21T09:36:43;96365.38;;;24.11;55.69
64228;BME280;50546;49.146;10.616;2022-08-21T09:39:11;96372.72;;;24.35;54.54
64228;BME280;50546;49.146;10.616;2022-08-21T09:41:38;96364.97;;;24.71;51.79
64228;BME280;50546;49.146;10.616;2022-08-21T09:44:06;96363.63;;;24.45;50.19
64228;BME280;50546;49.146;10.616;2022-08-21T09:46:32;96362.81;;;23.86;50.13
64228;BME280;50546;49.146;10.616;2022-08-21T09:49:01;96366.50;;;23.40;51.84
64228;BME280;50546;49.146;10.616;2022-08-21T09:51:32;96357.44;;;23.46;53.36
64228;BME280;50546;49.146;10.616;2022-08-21T09:56:36;96361.16;;;23.99;50.72
64228;BME280;50546;49.146;10.616;2022-08-21T10:01:50;96353.84;;;24.82;49.65
64228;BME280;50546;49.146;10.616;2022-08-21T10:04:28;96357.88;;;25.15;47.69
64228;BME280;50546;49.146;10.616;2022-08-21T10:06:53;96343.41;;;25.73;46.00
64228;BME280;50546;49.146;10.616;2022-08-21T10:09:20;96353.56;;;25.83;47.76
64228;BME280;50546;49.146;10.616;2022-08-21T10:12:05;96354.22;;;25.26;48.42
64228;BME280;50546;49.146;10.616;2022-08-21T10:17:35;96349.91;;;23.68;50.09
64228;BME280;50546;49.146;10.616;2022-08-21T10:20:07;96347.19;;;23.54;50.22
64228;BME280;50546;49.146;10.616;2022-08-21T10:22:42;96344.41;;;23.65;49.93
64228;BME280;50546;49.146;10.616;2022-08-21T10:36:14;96328.19;;;24.89;44.84
64228;BME280;50546;49.146;10.616;2022-08-21T10:38:54;96331.06;;;25.16;46.73
64228;BME280;50546;49.146;10.616;2022-08-21T10:41:38;96332.41;;;25.38;45.41
64228;BME280;50546;49.146;10.616;2022-08-21T10:44:22;96329.81;;;24.83;44.77
64228;BME280;50546;49.146;10.616;2022-08-21T10:47:05;96328.34;;;24.74;41.89
64228;BME280;50546;49.146;10.616;2022-08-21T10:49:51;96324.59;;;24.50;40.89
64228;BME280;50546;49.146;10.616;2022-08-21T10:55:02;96329.47;;;25.18;39.10
64228;BME280;50546;49.146;10.616;2022-08-21T10:57:46;96316.13;;;25.78;41.72
64228;BME280;50546;49.146;10.616;2022-08-21T11:00:18;96318.69;;;26.20;39.07
64228;BME280;50546;49.146;10.616;2022-08-21T11:03:05;96317.91;;;26.70;40.15
64228;BME280;50546;49.146;10.616;2022-08-21T11:05:43;96312.72;;;26.72;40.43
64228;BME280;50546;49.146;10.616;2022-08-21T11:08:23;96310.09;;;27.08;40.38
64228;BME280;50546;49.146;10.616;2022-08-21T11:11:01;96308.28;;;26.54;40.64
64228;BME280;50546;49.146;10.616;2022-08-21T11:13:39;96308.47;;;25.93;39.69
64228;BME280;50546;49.146;10.616;2022-08-21T11:16:45;96310.34;;;25.38;40.85
64228;BME280;50546;49.146;10.616;2022-08-21T11:19:20;96312.25;;;25.41;42.58
64228;BME280;50546;49.146;10.616;2022-08-21T11:22:13;96307.06;;;25.47;41.83
64228;BME280;50546;49.146;10.616;2022-08-21T11:25:03;96306.66;;;25.49;42.57
64228;BME280;50546;49.146;10.616;2022-08-21T11:27:38;96297.81;;;25.91;40.44
64228;BME280;50546;49.146;10.616;2022-08-21T11:30:07;96306.56;;;25.56;40.68
64228;BME280;50546;49.146;10.616;2022-08-21T11:38:17;96301.34;;;25.92;40.01
64228;BME280;50546;49.146;10.616;2022-08-21T11:40:57;96296.34;;;26.61;39.97
64228;BME280;50546;49.146;10.616;2022-08-21T11:43:43;96291.63;;;26.81;38.44
64228;BME280;50546;49.146;10.616;2022-08-21T11:46:48;96290.72;;;26.41;41.52
64228;BME280;50546;49.146;10.616;2022-08-21T11:49:18;96286.47;;;26.60;42.52
64228;BME280;50546;49.146;10.616;2022-08-21T11:52:07;96283.56;;;26.20;40.98
64228;BME280;50546;49.146;10.616;2022-08-21T11:54:54;96291.06;;;25.65;41.01
64228;BME280;50546;49.146;10.616;2022-08-21T11:57:27;96293.44;;;25.63;41.39
64228;BME280;50546;49.146;10.616;2022-08-21T12:00:05;96281.53;;;25.70;42.15
64228;BME280;50546;49.146;10.616;2022-08-21T12:02:36;96280.44;;;25.64;41.19
64228;BME280;50546;49.146;10.616;2022-08-21T12:05:22;96278.75;;;25.43;40.23
64228;BME280;50546;49.146;10.616;2022-08-21T12:08:00;96274.41;;;25.73;39.48
64228;BME280;50546;49.146;10.616;2022-08-21T12:10:36;96271.75;;;25.92;39.34
64228;BME280;50546;49.146;10.616;2022-08-21T12:13:11;96269.44;;;25.91;38.48
64228;BME280;50546;49.146;10.616;2022-08-21T12:15:46;96272.66;;;25.86;37.09
64228;BME280;50546;49.146;10.616;2022-08-21T12:18:38;96267.38;;;25.95;39.25
64228;BME280;50546;49.146;10.616;2022-08-21T12:21:23;96270.31;;;26.11;37.00
64228;BME280;50546;49.146;10.616;2022-08-21T12:26:57;96272.66;;;26.36;38.44
64228;BME280;50546;49.146;10.616;2022-08-21T12:29:29;96267.88;;;25.90;39.67
64228;BME280;50546;49.146;10.616;2022-08-21T12:32:00;96268.06;;;25.76;41.12
64228;BME280;50546;49.146;10.616;2022-08-21T12:34:32;96261.63;;;25.55;40.15
64228;BME280;50546;49.146;10.616;2022-08-21T12:37:02;96261.31;;;25.50;41.28
64228;BME280;50546;49.146;10.616;2022-08-21T12:39:32;96265.47;;;25.92;40.41
64228;BME280;50546;49.146;10.616;2022-08-21T12:42:15;96257.34;;;26.55;38.19
64228;BME280;50546;49.146;10.616;2022-08-21T12:44:56;96257.50;;;27.11;38.67
64228;BME280;50546;49.146;10.616;2022-08-21T12:47:33;96256.53;;;27.78;36.46
64228;BME280;50546;49.146;10.616;2022-08-21T12:50:13;96255.13;;;28.35;36.64
64228;BME280;50546;49.146;10.616;2022-08-21T12:52:45;96250.88;;;28.63;35.11
64228;BME280;50546;49.146;10.616;2022-08-21T12:55:15;96250.31;;;28.39;35.47
64228;BME280;50546;49.146;10.616;2022-08-21T12:57:49;96251.16;;;27.87;35.37
64228;BME280;50546;49.146;10.616;2022-08-21T13:00:21;96252.44;;;27.46;36.37
64228;BME280;50546;49.146;10.616;2022-08-21T13:02:49;96252.19;;;27.21;37.13
64228;BME280;50546;49.146;10.616;2022-08-21T13:05:28;96254.00;;;26.87;38.68
64228;BME280;50546;49.146;10.616;2022-08-21T13:07:54;96240.66;;;26.62;38.17
64228;BME280;50546;49.146;10.616;2022-08-21T13:10:24;96241.19;;;26.30;39.01
64228;BME280;50546;49.146;10.616;2022-08-21T13:12:52;96238.78;;;26.56;39.91
64228;BME280;50546;49.146;10.616;2022-08-21T13:15:25;96237.56;;;27.20;40.33
64228;BME280;50546;49.146;10.616;2022-08-21T13:17:51;96241.44;;;27.43;37.60
64228;BME280;50546;49.146;10.616;2022-08-21T13:20:27;96238.19;;;28.00;36.46
64228;BME280;50546;49.146;10.616;2022-08-21T13:22:53;96238.84;;;27.88;35.60
64228;BME280;50546;49.146;10.616;2022-08-21T13:25:20;96236.53;;;27.87;33.92
64228;BME280;50546;49.146;10.616;2022-08-21T13:28:09;96231.16;;;27.43;34.52
64228;BME280;50546;49.146;10.616;2022-08-21T13:30:40;96242.84;;;26.71;36.89
64228;BME280;50546;49.146;10.616;2022-08-21T13:33:07;96247.16;;;26.72;36.78
64228;BME280;50546;49.146;10.616;2022-08-21T13:35:47;96241.69;;;26.69;36.37
64228;BME280;50546;49.146;10.616;2022-08-21T13:38:14;96239.22;;;26.94;36.72
64228;BME280;50546;49.146;10.616;2022-08-21T13:40:46;96234.22;;;27.09;34.07
64228;BME280;50546;49.146;10.616;2022-08-21T13:43:17;96240.09;;;26.91;37.12